Relevés horaires Beauvechain (Belgique)


Relevés horaires à Beauvechain - Vendredi 26 Juin 2020
Heure UTC1 Température [°C] Vent [km/h] Hum. [%] Pres.4 [hPa] Visi. [Km] Nébu. [octa] Préc.5 [mm] Cond.
2m. Res. Ros. Dir.2 Vit. Moy. Raf.3
23:00 21.2 21.2 15.6 NNO 0.0 -- 0.0 70 1009.8(0.1/3h) 20 -- -- --
22:00 21.8 21.8 15.8 NNO 0.0 -- 0.0 69 1010(-0.1/3h) 20 -- -- --
21:00 22.6 22.6 16.0 NNO 0.0 -- 0.0 66 1010.2(0.1/3h) 20 -- -- --
20:00 23.2 23.2 15.9 NNO 0.0 -- 0.0 64 1009.7(0.1/3h) 20 -- -- --
19:00 24.0 24.0 15.5 NNO 0.0 -- 0.0 59 1010(0.3/3h) 20 -- -- --
18:00 24.6 24.6 15.1 NNO 0.0 -- 0.0 55 1010.1(0.2/3h) 20 -- -- --
17:00 25.7 25.7 17.9 NNO 0.0 -- 0.0 62 1009.7(0.0/3h) 19 -- -- --
16:00 26.5 26.5 17.8 NNO 0.0 -- 0.0 59 1009.7(-0.4/3h) 20 -- -- --
15:00 27.6 27.6 17.8 SSO 7.4 -- 0.0 55 1009.7(-0.9/3h) 20 5/8 -- --
14:00 27.4 27.4 17.5 S 3.7 -- 0.0 55 1009.6(-1.2/3h) 20 5/8 -- --
13:00 28.0 28.0 17.6 O 7.4 -- 0.0 53 1010.1(-0.5/3h) 20 6/8 -- --
12:00 27.2 27.2 16.8 SO 7.4 -- 0.0 53 1010.7(0.0/3h) 20 4/8 -- --
11:00 26.9 26.9 15.4 SSO 11.1 -- 0.0 49 1010.8(-0.1/3h) 20 4/8 -- --
10:00 28.1 28.1 15.6 SSE 7.4 -- 0.0 47 1010.6(-0.6/3h) 20 4/8 -- --
09:00 26.0 26.0 15.2 SE 3.7 -- 0.0 51 1010.7(-0.7/3h) 20 3/8 -- --
08:00 24.6 24.6 15.7 SE 5.6 -- 0.0 58 1011.2(-0.4/3h) 20 2/8 -- --
07:00 22.5 22.5 15.8 ESE 3.7 -- 0.0 66 1011.6(0.1/3h) 20 2/8 -- --
06:00 20.2 20.2 14.4 ESE 3.7 -- 0.0 69 1011.8(-0.1/3h) 20 2/8 -- --
05:00 19.1 19.1 14.1 NNO 0.0 -- 0.0 73 1011.8(-0.6/3h) 20 -- -- --
04:00 17.7 17.7 14.1 NNO 0.0 -- 0.0 79 1011.8(-1.2/3h) 20 -- -- --
03:00 17.9 17.9 14.5 NNO 0.0 -- 0.0 81 1012.2(-1.2/3h) 20 -- -- --
02:00 19.1 19.1 14.6 NNO 0.0 -- 0.0 75 1012.7(-0.9/3h) 20 -- -- --
01:00 20.7 20.7 14.7 NNO 0.0 -- 0.0 69 1013(-0.6/3h) 20 -- -- --
00:00 20.9 20.9 15.0 NNO 0.0 -- 0.0 69 1013.2(-0.6/3h) 20 -- -- --

1 Coordinated Universal Time. Actuellement il est 13:00 locale et 11:00 UTC.

2 Le vent souffle depuis la direction indiquée vers la direction oposée.

3 Les rafales max. sont disponible 40 min après l'heure du relevé.

4 Pour les stations d'altitude (plus de 600m) le géopotentiel du niveau le plus proche de la pression obligatoire est indiqué.

5 Les stations disposant d'un diffuseur peuvent indiquer "trace". Cela signifie que des précipitations ont touchés le sol mais que la quantité est inférieure à 0.1 mm.

Récapitulatif de la journée
Température [°C] Vent [km/h] Ensoleillement4 [h] Precipitations totale5 [mm] Pression [Hpa]
Min1 Max.2 Moy.3 Max. Min Max.
17.6 29.1 0 0.0 0 h 0 min 0 1009.6 1013.2

1 Température minimale relevée entre 18:00 UTC la veille et 18:00 UTC le jour donné.

2 Température maximale relevée entre 06:00 UTC le jour donné et 06:00 UTC le lendemain.

3 Vent moyen de la journée basé sur les relevés horaires.

4 Ensoleillement en heures relevé entre 06:00 UTC la veille et 06:00 UTC le jour donné.

5 Précipitations totales tombées entre 06:00 UTC la jour donné et 06:00 UTC le lendemain.

Graphiques horaires